الصفحة الرئيسية
METAR-TAF:

METAR-TAF

مطار :

تامباكوندا, السنغال

دائرة عرض: 13-46N, خط طول: 013-41W, ارتفاع: 49 متر

مراقبة الطقس الحالي

تاريخ ووقت الإصدار 1ساعة و 22 دقيقة قبل الساعة 16:00UTC
ريح 6 عقدة من الشرق/الشمال الشرقي
درجة الحرارة 37°درجة مئوية
الرطوبة 16%
ضغط 1007 hPa
الرؤية: 8000 متر

METAR: GOTT 211600Z 06006KT 8000 NSC 37/07 Q1007

زمن: 17:22 (17:22 UTC)


TAF: مفقودة

أرصاد الطقس والتوقعات من أكثر من 4000 مطار (تقارير الطقس للمطار METAR والتنبؤ بالطقس بالمطارTAF).

المحطات المتاحة هي النقط الصفراء والحمراء على الخريطة.

حرك المؤشر فوق النقطة لمعرفة اسم المحطة.

ثم انقر لمعرفة أرصاد وتوقعات الطقس.

لتغيير الخارطة: اضغط على الأزرار الخضراء مع رمز الصليب الأسود للتكبير. على الزر الأخضر مع شرطة للتصغير، أو على الأسهم الخضراء للخرائط المجاورة.


METAR-TAF: